createdAt,value
2017-12-13T00:00:12.449Z,97.42
2017-12-13T00:01:22.156Z,97.42
2017-12-13T00:02:32.137Z,96.95
2017-12-13T00:03:41.845Z,96.76
2017-12-13T00:04:51.549Z,97.23
2017-12-13T00:06:01.526Z,97.42
2017-12-13T00:07:11.505Z,98.08
2017-12-13T00:08:21.475Z,98.08
2017-12-13T00:09:31.444Z,97.89
2017-12-13T00:10:41.413Z,98.36
2017-12-13T00:11:51.390Z,98.74
2017-12-13T00:13:01.368Z,98.65
2017-12-13T00:14:11.338Z,98.83
2017-12-13T00:15:21.320Z,99.11
2017-12-13T00:16:31.031Z,99.87
2017-12-13T00:17:40.762Z,99.99
2017-12-13T00:18:50.740Z,99.99
2017-12-13T00:20:00.181Z,99.99
2017-12-13T00:21:10.154Z,99.96
2017-12-13T00:22:20.125Z,99.4
2017-12-13T00:23:30.112Z,98.36
2017-12-13T00:24:40.083Z,98.46
2017-12-13T00:25:50.055Z,97.52
2017-12-13T00:27:00.028Z,97.61
2017-12-13T00:28:09.998Z,96.86
2017-12-13T00:29:19.970Z,96.29
2017-12-13T00:30:29.939Z,96.39
2017-12-13T00:31:39.968Z,95.91
2017-12-13T00:32:49.942Z,95.54
2017-12-13T00:33:59.913Z,95.63
2017-12-13T00:35:09.626Z,96.57
2017-12-13T00:36:19.334Z,96.67
2017-12-13T00:37:29.300Z,97.52
2017-12-13T00:38:39.009Z,98.27
2017-12-13T00:39:48.987Z,97.99
2017-12-13T00:40:58.692Z,98.74
2017-12-13T00:42:08.422Z,99.4
2017-12-13T00:43:18.404Z,99.99
2017-12-13T00:44:27.845Z,99.58
2017-12-13T00:45:37.819Z,99.99
2017-12-13T00:46:47.796Z,99.99
2017-12-13T00:47:57.764Z,99.99
2017-12-13T00:49:07.738Z,99.99
2017-12-13T00:50:17.739Z,99.99
2017-12-13T00:51:27.453Z,99.87
2017-12-13T00:52:37.419Z,99.99
2017-12-13T00:53:47.388Z,99.99
2017-12-13T00:54:57.095Z,99.99
2017-12-13T00:56:06.806Z,99.99
2017-12-13T00:57:16.778Z,99.99
2017-12-13T00:58:26.481Z,99.99
2017-12-13T00:59:36.449Z,99.99
2017-12-13T01:00:46.424Z,99.99
2017-12-13T01:01:56.403Z,99.99
2017-12-13T01:03:06.373Z,99.99
2017-12-13T01:04:16.342Z,99.99
2017-12-13T01:05:26.370Z,99.99
2017-12-13T01:06:36.072Z,99.99
2017-12-13T01:07:46.041Z,99.99
2017-12-13T01:08:56.018Z,99.99
2017-12-13T01:10:05.721Z,99.99
2017-12-13T01:11:15.695Z,99.99
2017-12-13T01:12:25.725Z,99.99
2017-12-13T01:13:35.692Z,99.99
2017-12-13T01:14:45.661Z,99.99
2017-12-13T01:15:55.367Z,99.99
2017-12-13T01:17:05.336Z,99.99
2017-12-13T01:18:15.310Z,99.99
2017-12-13T01:19:25.289Z,99.99
2017-12-13T01:20:35.262Z,99.99
2017-12-13T01:21:45.253Z,99.99
2017-12-13T01:22:55.235Z,99.99
2017-12-13T01:24:05.209Z,99.99
2017-12-13T01:25:15.188Z,99.99
2017-12-13T01:26:25.160Z,99.99
2017-12-13T01:27:35.135Z,99.99
2017-12-13T01:28:45.110Z,99.99
2017-12-13T01:29:55.082Z,99.99
2017-12-13T01:31:05.060Z,99.99
2017-12-13T01:32:15.038Z,99.99
2017-12-13T01:33:25.007Z,99.99
2017-12-13T01:34:34.980Z,99.99
2017-12-13T01:35:44.949Z,99.99
2017-12-13T01:36:54.923Z,99.99
2017-12-13T01:38:04.625Z,99.99
2017-12-13T01:39:14.329Z,99.99
2017-12-13T01:40:24.296Z,99.99
2017-12-13T01:41:34.271Z,99.99
2017-12-13T01:42:44.002Z,99.99
2017-12-13T01:43:53.978Z,99.99
2017-12-13T01:45:03.953Z,99.99
2017-12-13T01:46:13.977Z,99.99
2017-12-13T01:47:23.957Z,99.99
2017-12-13T01:48:33.987Z,99.99
2017-12-13T01:49:44.060Z,99.99
2017-12-13T01:50:54.036Z,99.99
2017-12-13T01:52:04.010Z,99.99
2017-12-13T01:53:13.980Z,99.99
2017-12-13T01:54:23.964Z,99.99
2017-12-13T01:55:33.669Z,99.99
2017-12-13T01:56:43.641Z,99.99
2017-12-13T01:57:53.609Z,99.99
2017-12-13T01:59:03.580Z,99.99
2017-12-13T02:00:13.555Z,99.99
2017-12-13T02:01:23.526Z,99.99
2017-12-13T02:02:33.497Z,99.96
2017-12-13T02:03:43.467Z,99.68
2017-12-13T02:04:53.440Z,99.49
2017-12-13T02:06:03.414Z,98.55
2017-12-13T02:07:13.390Z,98.74
2017-12-13T02:08:23.094Z,99.02
2017-12-13T02:09:33.069Z,98.93
2017-12-13T02:10:43.042Z,98.74
2017-12-13T02:11:52.746Z,98.08
2017-12-13T02:13:02.720Z,97.52
2017-12-13T02:14:12.696Z,97.61
2017-12-13T02:15:22.673Z,98.36
2017-12-13T02:16:32.644Z,98.27
2017-12-13T02:17:42.088Z,98.18
2017-12-13T02:18:52.061Z,99.02
2017-12-13T02:20:01.768Z,99.4
2017-12-13T02:21:11.204Z,99.49
2017-12-13T02:22:21.186Z,99.96
2017-12-13T02:23:30.627Z,99.99
2017-12-13T02:24:40.596Z,99.99
2017-12-13T02:25:50.625Z,99.99
2017-12-13T02:27:00.597Z,99.99
2017-12-13T02:28:10.568Z,99.99
2017-12-13T02:29:20.282Z,99.99
2017-12-13T02:30:30.253Z,99.99
2017-12-13T02:31:40.225Z,99.99
2017-12-13T02:32:49.713Z,99.99
2017-12-13T02:33:59.427Z,99.99
2017-12-13T02:35:09.404Z,99.99
2017-12-13T02:36:19.383Z,99.99
2017-12-13T02:37:29.359Z,99.99
2017-12-13T02:38:39.079Z,99.99
2017-12-13T02:39:49.054Z,99.99
2017-12-13T02:40:58.756Z,99.99
2017-12-13T02:42:08.728Z,99.99
2017-12-13T02:43:18.435Z,99.96
2017-12-13T02:44:28.154Z,99.99
2017-12-13T02:45:37.880Z,99.99
2017-12-13T02:46:47.852Z,99.99
2017-12-13T02:47:57.835Z,99.99
2017-12-13T02:49:07.854Z,99.99
2017-12-13T02:50:17.842Z,99.99
2017-12-13T02:51:27.816Z,99.99
2017-12-13T02:52:37.801Z,99.99
2017-12-13T02:53:47.769Z,99.99
2017-12-13T02:54:57.753Z,99.99
2017-12-13T02:56:07.726Z,99.99
2017-12-13T02:57:17.434Z,99.99
2017-12-13T02:58:27.425Z,99.99
2017-12-13T02:59:37.462Z,99.99
2017-12-13T03:00:47.436Z,99.99
2017-12-13T03:01:57.417Z,99.99
2017-12-13T03:03:07.387Z,99.99
2017-12-13T03:04:17.360Z,99.99
2017-12-13T03:05:27.334Z,99.99
2017-12-13T03:06:37.308Z,99.99
2017-12-13T03:07:47.353Z,99.99
2017-12-13T03:08:57.320Z,99.99
2017-12-13T03:10:07.291Z,99.99
2017-12-13T03:11:17.267Z,99.99
2017-12-13T03:12:27.246Z,99.99
2017-12-13T03:13:37.269Z,99.99
2017-12-13T03:14:47.242Z,99.99
2017-12-13T03:15:57.318Z,99.99
2017-12-13T03:17:07.289Z,99.99
2017-12-13T03:18:17.001Z,99.99
2017-12-13T03:19:26.978Z,99.99
2017-12-13T03:20:36.947Z,99.99
2017-12-13T03:21:46.918Z,99.99
2017-12-13T03:22:56.887Z,99.99
2017-12-13T03:24:06.592Z,99.99
2017-12-13T03:25:16.356Z,99.99
2017-12-13T03:26:26.338Z,99.99
2017-12-13T03:27:36.305Z,99.99
2017-12-13T03:28:46.273Z,99.99
2017-12-13T03:29:56.250Z,99.99
2017-12-13T03:31:06.232Z,99.99
2017-12-13T03:32:16.229Z,99.99
2017-12-13T03:33:26.203Z,99.99
2017-12-13T03:34:36.171Z,99.99
2017-12-13T03:35:46.158Z,99.99
2017-12-13T03:36:56.129Z,99.99
2017-12-13T03:38:06.111Z,99.99
2017-12-13T03:39:16.083Z,99.99
2017-12-13T03:40:25.787Z,99.99
2017-12-13T03:41:35.760Z,99.99
2017-12-13T03:42:45.730Z,99.99
2017-12-13T03:43:55.445Z,99.99
2017-12-13T03:45:05.419Z,99.99
2017-12-13T03:46:15.392Z,99.99
2017-12-13T03:47:25.380Z,99.99
2017-12-13T03:48:35.351Z,99.99
2017-12-13T03:49:45.320Z,99.99
2017-12-13T03:50:55.300Z,99.99
2017-12-13T03:52:05.270Z,99.99
2017-12-13T03:53:14.716Z,99.99
2017-12-13T03:54:24.690Z,99.99
2017-12-13T03:55:34.663Z,99.99
2017-12-13T03:56:44.632Z,99.99
2017-12-13T03:57:54.339Z,99.99
2017-12-13T03:59:04.311Z,99.99
2017-12-13T04:04:40.435Z,99.99
2017-12-13T04:05:50.135Z,99.99
2017-12-13T04:07:00.109Z,99.99
2017-12-13T04:08:09.816Z,99.99
2017-12-13T04:09:19.525Z,99.99
2017-12-13T04:10:29.504Z,99.99
2017-12-13T04:11:39.478Z,99.99
2017-12-13T04:12:49.186Z,99.99
2017-12-13T04:13:58.894Z,99.99
2017-12-13T04:15:12.369Z,99.99
2017-12-13T04:16:21.811Z,99.99
2017-12-13T04:17:31.786Z,99.99
2017-12-13T04:18:41.760Z,99.99
2017-12-13T04:19:51.790Z,99.99
2017-12-13T04:21:01.820Z,99.99
2017-12-13T04:22:11.531Z,99.99
2017-12-13T04:23:20.973Z,99.99
2017-12-13T04:24:30.417Z,99.99
2017-12-13T04:25:40.394Z,99.99
2017-12-13T04:26:50.368Z,99.99
2017-12-13T04:28:00.400Z,99.99
2017-12-13T04:29:10.109Z,99.99
2017-12-13T04:30:19.823Z,99.99
2017-12-13T04:31:29.271Z,99.99
2017-12-13T04:32:38.978Z,99.99
2017-12-13T04:33:48.681Z,99.99
2017-12-13T04:34:58.655Z,99.99
2017-12-13T04:36:08.372Z,99.99
2017-12-13T04:37:18.086Z,99.99
2017-12-13T04:38:28.056Z,99.99
2017-12-13T04:39:38.040Z,99.99
2017-12-13T04:40:48.019Z,99.99
2017-12-13T04:41:57.994Z,99.99
2017-12-13T04:43:07.987Z,99.99
2017-12-13T04:44:17.962Z,99.99
2017-12-13T04:45:27.943Z,99.99
2017-12-13T04:46:37.647Z,99.99
2017-12-13T04:47:47.090Z,99.99
2017-12-13T04:48:57.059Z,99.99
2017-12-13T04:50:07.030Z,99.99
2017-12-13T04:51:17.014Z,99.99
2017-12-13T04:52:26.985Z,99.99
2017-12-13T04:53:36.700Z,99.99
2017-12-13T04:54:46.680Z,99.99
2017-12-13T04:55:56.398Z,99.99
2017-12-13T04:57:06.372Z,99.99
2017-12-13T04:58:16.345Z,99.99
2017-12-13T04:59:26.318Z,99.99
2017-12-13T05:00:37.285Z,99.99
2017-12-13T05:01:47.267Z,99.99
2017-12-13T05:02:57.238Z,99.99
2017-12-13T05:04:07.279Z,99.99
2017-12-13T05:05:17.259Z,99.99
2017-12-13T05:06:26.969Z,99.99
2017-12-13T05:07:36.940Z,99.99
2017-12-13T05:08:46.915Z,99.99
2017-12-13T05:09:56.891Z,99.99
2017-12-13T05:11:06.868Z,99.99
2017-12-13T05:12:16.583Z,99.99
2017-12-13T05:13:28.557Z,99.99
2017-12-13T05:14:38.536Z,99.99
2017-12-13T05:15:48.508Z,99.99
2017-12-13T05:16:58.484Z,99.99
2017-12-13T05:18:08.456Z,99.99
2017-12-13T05:19:18.427Z,99.99
2017-12-13T05:20:28.466Z,99.99
2017-12-13T05:21:38.436Z,99.99
2017-12-13T05:22:48.417Z,99.99
2017-12-13T05:23:58.398Z,99.99
2017-12-13T05:25:08.373Z,99.99
2017-12-13T05:26:18.374Z,99.99
2017-12-13T05:27:28.346Z,99.99
2017-12-13T05:28:38.324Z,99.99
2017-12-13T05:29:48.289Z,99.99
2017-12-13T05:30:57.740Z,99.99
2017-12-13T05:32:07.181Z,99.99
2017-12-13T05:33:16.891Z,99.99
2017-12-13T05:34:26.863Z,99.99
2017-12-13T05:35:36.581Z,99.99
2017-12-13T05:36:46.550Z,99.99
2017-12-13T05:37:55.991Z,99.99
2017-12-13T05:39:05.699Z,99.99
2017-12-13T05:40:15.668Z,99.99
2017-12-13T05:41:25.640Z,99.99
2017-12-13T05:42:35.359Z,99.99
2017-12-13T05:43:45.334Z,99.99
2017-12-13T05:44:55.299Z,99.99
2017-12-13T05:46:05.274Z,99.99
2017-12-13T05:47:15.247Z,99.99
2017-12-13T05:48:25.218Z,99.99
2017-12-13T05:49:35.201Z,99.99
2017-12-13T05:50:45.178Z,99.99
2017-12-13T05:51:54.887Z,99.99
2017-12-13T05:53:04.593Z,99.99
2017-12-13T05:54:14.576Z,99.99
2017-12-13T05:55:24.548Z,99.99
2017-12-13T05:56:34.519Z,99.99
2017-12-13T05:57:44.225Z,99.99
2017-12-13T05:58:54.197Z,99.99
2017-12-13T06:00:04.167Z,99.99
2017-12-13T06:01:14.139Z,99.99
2017-12-13T06:02:24.114Z,99.99
2017-12-13T06:03:33.815Z,99.99
2017-12-13T06:04:43.789Z,99.99
2017-12-13T06:05:53.763Z,99.99
2017-12-13T06:07:03.465Z,99.99
2017-12-13T06:08:13.438Z,99.99
2017-12-13T06:09:23.148Z,99.99
2017-12-13T06:10:33.120Z,99.99
2017-12-13T06:11:43.095Z,99.99
2017-12-13T06:12:53.063Z,99.99
2017-12-13T06:14:03.038Z,99.99
2017-12-13T06:15:12.487Z,99.99
2017-12-13T06:16:22.462Z,99.99
2017-12-13T06:17:32.173Z,99.99
2017-12-13T06:18:41.884Z,99.99
2017-12-13T06:19:51.852Z,99.99
2017-12-13T06:21:01.620Z,99.99
2017-12-13T06:22:11.335Z,99.99
2017-12-13T06:23:21.312Z,99.99
2017-12-13T06:24:30.759Z,99.99
2017-12-13T06:25:40.747Z,99.99
2017-12-13T06:26:50.721Z,99.99
2017-12-13T06:28:00.706Z,99.99
2017-12-13T06:29:10.678Z,99.99
2017-12-13T06:30:20.646Z,99.99
2017-12-13T06:31:30.621Z,99.99
2017-12-13T06:32:40.598Z,99.99
2017-12-13T06:33:50.567Z,99.99
2017-12-13T06:35:00.543Z,99.99
2017-12-13T06:36:10.532Z,99.99
2017-12-13T06:37:20.247Z,99.99
2017-12-13T06:38:30.226Z,99.99
2017-12-13T06:39:40.204Z,99.99
2017-12-13T06:40:49.914Z,99.99
2017-12-13T06:41:59.891Z,99.99
2017-12-13T06:43:09.861Z,99.99
2017-12-13T06:44:19.845Z,99.99
2017-12-13T06:45:29.822Z,99.99
2017-12-13T06:46:39.802Z,99.99
2017-12-13T06:47:49.772Z,99.99
2017-12-13T06:48:59.747Z,99.99
2017-12-13T06:50:08.931Z,99.99
2017-12-13T06:51:18.910Z,99.99
2017-12-13T06:52:28.399Z,99.99
2017-12-13T06:53:38.115Z,99.99
2017-12-13T06:54:48.085Z,99.99
2017-12-13T06:55:58.073Z,99.99
2017-12-13T06:57:07.797Z,99.99
2017-12-13T06:58:17.786Z,99.99
2017-12-13T06:59:27.759Z,99.99
2017-12-13T07:00:37.733Z,99.99
2017-12-13T07:01:47.703Z,99.99
2017-12-13T07:02:57.411Z,99.99
2017-12-13T07:04:07.394Z,99.99
2017-12-13T07:05:17.107Z,99.99
2017-12-13T07:06:26.551Z,99.99
2017-12-13T07:07:36.260Z,99.99
2017-12-13T07:08:46.238Z,99.99
2017-12-13T07:09:56.213Z,99.99
2017-12-13T07:11:05.662Z,99.99
2017-12-13T07:12:15.641Z,99.99
2017-12-13T07:13:25.615Z,99.99
2017-12-13T07:14:35.589Z,99.99
2017-12-13T07:15:45.561Z,99.99
2017-12-13T07:16:55.007Z,99.99
2017-12-13T07:18:04.720Z,99.99
2017-12-13T07:19:14.692Z,99.99
2017-12-13T07:20:24.404Z,99.99
2017-12-13T07:21:34.384Z,99.99
2017-12-13T07:22:44.358Z,99.99
2017-12-13T07:23:54.332Z,99.99
2017-12-13T07:25:04.312Z,99.99
2017-12-13T07:26:14.289Z,99.99
2017-12-13T07:27:24.270Z,99.99
2017-12-13T07:28:34.243Z,99.99
2017-12-13T07:29:44.221Z,99.99
2017-12-13T07:30:54.198Z,99.99
2017-12-13T07:32:04.174Z,99.99
2017-12-13T07:33:13.890Z,99.99
2017-12-13T07:34:23.867Z,99.99
2017-12-13T07:35:33.850Z,99.99
2017-12-13T07:36:43.834Z,99.99
2017-12-13T07:37:53.812Z,99.99
2017-12-13T07:39:03.786Z,99.99
2017-12-13T07:40:13.756Z,99.99
2017-12-13T07:41:23.734Z,99.99
2017-12-13T07:42:33.708Z,99.99
2017-12-13T07:43:43.426Z,99.99
2017-12-13T07:44:53.134Z,99.99
2017-12-13T07:46:03.112Z,99.99
2017-12-13T07:47:12.838Z,99.99
2017-12-13T07:48:22.553Z,99.99
2017-12-13T07:49:32.007Z,99.99
2017-12-13T07:50:41.978Z,99.99
2017-12-13T07:51:51.952Z,99.99
2017-12-13T07:53:01.926Z,99.99
2017-12-13T07:54:11.899Z,99.99
2017-12-13T07:55:21.880Z,99.99
2017-12-13T07:56:31.600Z,99.99
2017-12-13T07:57:41.577Z,99.99
2017-12-13T07:58:51.283Z,99.99
2017-12-13T08:00:01.252Z,99.99
2017-12-13T08:01:10.707Z,99.99
2017-12-13T08:02:20.423Z,99.99
2017-12-13T08:03:30.397Z,99.99
2017-12-13T08:04:40.117Z,99.99
2017-12-13T08:05:50.094Z,99.99
2017-12-13T08:07:00.071Z,99.99
2017-12-13T08:08:09.781Z,99.99
2017-12-13T08:09:19.758Z,99.99
2017-12-13T08:10:29.744Z,99.99
2017-12-13T08:11:39.458Z,99.99
2017-12-13T08:12:49.171Z,99.99
2017-12-13T08:13:59.148Z,99.99
2017-12-13T08:15:08.860Z,99.99
2017-12-13T08:16:18.566Z,99.99
2017-12-13T08:17:28.280Z,99.99
2017-12-13T08:18:38.266Z,99.99
2017-12-13T08:19:48.242Z,99.99
2017-12-13T08:20:58.223Z,99.99
2017-12-13T08:22:08.206Z,99.99
2017-12-13T08:23:17.651Z,99.99
2017-12-13T08:24:27.369Z,99.99
2017-12-13T08:25:37.393Z,99.99
2017-12-13T08:26:46.835Z,99.99
2017-12-13T08:27:56.278Z,99.99
2017-12-13T08:29:06.288Z,99.99
2017-12-13T08:30:15.729Z,99.99
2017-12-13T08:31:25.439Z,99.99
2017-12-13T08:32:35.417Z,99.99
2017-12-13T08:33:45.133Z,99.99
2017-12-13T08:34:55.111Z,99.99
2017-12-13T08:36:05.097Z,99.99
2017-12-13T08:37:14.809Z,99.99
2017-12-13T08:38:24.796Z,99.99
2017-12-13T08:39:34.503Z,99.99
2017-12-13T08:40:44.483Z,99.99
2017-12-13T08:41:54.204Z,99.99
2017-12-13T08:43:04.179Z,99.99
2017-12-13T08:44:14.159Z,99.99
2017-12-13T08:45:24.142Z,99.99
2017-12-13T08:46:34.119Z,99.99
2017-12-13T08:47:43.829Z,99.99
2017-12-13T08:48:53.802Z,99.99
2017-12-13T08:50:03.512Z,99.99
2017-12-13T08:51:13.231Z,99.99
2017-12-13T08:52:23.208Z,99.99
2017-12-13T08:53:33.194Z,99.99
2017-12-13T08:54:43.168Z,99.99
2017-12-13T08:55:52.877Z,99.99
2017-12-13T08:57:02.850Z,99.99
2017-12-13T08:58:12.556Z,99.99
2017-12-13T08:59:22.532Z,99.99
2017-12-13T09:00:32.504Z,99.99
2017-12-13T09:01:42.489Z,99.99
2017-12-13T09:02:52.467Z,99.99
2017-12-13T09:04:02.194Z,99.99
2017-12-13T09:05:11.645Z,99.99
2017-12-13T09:06:21.621Z,99.99
2017-12-13T09:07:31.327Z,99.99
2017-12-13T09:08:41.308Z,99.99
2017-12-13T09:09:51.018Z,99.99
2017-12-13T09:11:00.991Z,99.99
2017-12-13T09:12:10.699Z,99.99
2017-12-13T09:13:20.410Z,99.99
2017-12-13T09:14:30.389Z,99.99
2017-12-13T09:15:40.097Z,99.99
2017-12-13T09:16:50.072Z,99.99
2017-12-13T09:17:59.517Z,99.99
2017-12-13T09:19:09.485Z,99.99
2017-12-13T09:20:19.200Z,99.99
2017-12-13T09:21:29.177Z,99.99
2017-12-13T09:22:38.891Z,99.99
2017-12-13T09:23:48.602Z,99.99
2017-12-13T09:24:58.577Z,99.99
2017-12-13T09:26:08.291Z,99.99
2017-12-13T09:27:18.264Z,99.99
2017-12-13T09:28:28.238Z,99.99
2017-12-13T09:29:38.215Z,99.99
2017-12-13T09:30:47.925Z,99.99
2017-12-13T09:31:57.902Z,99.99
2017-12-13T09:33:07.874Z,99.99
2017-12-13T09:34:17.846Z,99.99
2017-12-13T09:35:27.857Z,99.99
2017-12-13T09:36:37.836Z,99.99
2017-12-13T09:37:47.822Z,99.99
2017-12-13T09:38:57.800Z,99.99
2017-12-13T09:40:07.512Z,99.99
2017-12-13T09:41:17.493Z,99.99
2017-12-13T09:42:27.469Z,99.99
2017-12-13T09:43:37.443Z,99.99
2017-12-13T09:44:47.425Z,99.99
2017-12-13T09:45:57.406Z,99.99
2017-12-13T09:47:08.083Z,99.99
2017-12-13T09:48:17.560Z,99.99
2017-12-13T09:49:27.267Z,99.99
2017-12-13T09:50:37.325Z,99.99
2017-12-13T09:51:47.298Z,99.99
2017-12-13T09:52:57.276Z,99.99
2017-12-13T09:54:07.262Z,99.99
2017-12-13T09:55:16.970Z,99.99
2017-12-13T09:56:26.961Z,99.99
2017-12-13T09:57:36.985Z,99.99
2017-12-13T09:58:46.696Z,99.99
2017-12-13T09:59:56.676Z,99.99
2017-12-13T10:01:06.654Z,99.99
2017-12-13T10:02:16.630Z,99.99
2017-12-13T10:03:26.606Z,99.99
2017-12-13T10:04:36.682Z,99.99
2017-12-13T10:05:46.393Z,99.99
2017-12-13T10:06:56.373Z,99.99
2017-12-13T10:08:06.345Z,99.99
2017-12-13T10:09:16.316Z,99.99
2017-12-13T10:10:26.293Z,99.99
2017-12-13T10:11:36.001Z,99.99
2017-12-13T10:12:45.993Z,99.99
2017-12-13T10:13:55.969Z,99.99
2017-12-13T10:15:05.683Z,99.99
2017-12-13T10:16:15.742Z,99.99
2017-12-13T10:17:25.718Z,99.99
2017-12-13T10:18:35.228Z,99.99
2017-12-13T10:19:44.674Z,99.99
2017-12-13T10:20:54.389Z,99.99
2017-12-13T10:22:04.097Z,99.99
2017-12-13T10:23:14.090Z,99.99
2017-12-13T10:24:24.062Z,99.99
2017-12-13T10:25:33.779Z,99.99
2017-12-13T10:26:43.763Z,99.99
2017-12-13T10:27:53.742Z,99.99
2017-12-13T10:29:03.729Z,99.99
2017-12-13T10:30:13.706Z,99.99
2017-12-13T10:31:23.679Z,99.99
2017-12-13T10:32:33.655Z,99.99
2017-12-13T10:33:43.641Z,99.99
2017-12-13T10:34:53.612Z,99.99
2017-12-13T10:36:03.586Z,99.99
2017-12-13T10:37:13.564Z,99.99
2017-12-13T10:38:23.551Z,99.99
2017-12-13T10:39:33.261Z,99.99
2017-12-13T10:40:43.232Z,99.99
2017-12-13T10:41:53.213Z,99.99
2017-12-13T10:43:02.929Z,99.99
2017-12-13T10:44:12.640Z,99.99
2017-12-13T10:45:22.362Z,99.99
2017-12-13T10:46:32.341Z,99.99
2017-12-13T10:47:42.064Z,99.99
2017-12-13T10:48:52.048Z,99.99
2017-12-13T10:50:02.022Z,99.99
2017-12-13T10:51:12.001Z,99.99
2017-12-13T10:52:21.975Z,99.99
2017-12-13T10:53:31.683Z,99.99
2017-12-13T10:54:41.665Z,99.99
2017-12-13T10:55:51.642Z,99.99
2017-12-13T10:57:03.353Z,99.99
2017-12-13T10:58:13.326Z,99.99
2017-12-13T10:59:23.304Z,99.99
2017-12-13T11:00:33.021Z,99.99
2017-12-13T11:01:42.995Z,99.99
2017-12-13T11:02:52.711Z,99.99
2017-12-13T11:04:02.419Z,99.99
2017-12-13T11:05:11.866Z,99.99
2017-12-13T11:06:21.842Z,99.99
2017-12-13T11:07:31.817Z,99.99
2017-12-13T11:08:41.787Z,99.99
2017-12-13T11:09:51.762Z,99.99
2017-12-13T11:11:01.745Z,99.99
2017-12-13T11:12:11.719Z,99.99
2017-12-13T11:13:21.163Z,99.99
2017-12-13T11:14:31.148Z,99.99
2017-12-13T11:15:41.123Z,99.99
2017-12-13T11:16:51.101Z,99.99
2017-12-13T11:18:01.081Z,99.99
2017-12-13T11:19:10.790Z,99.99
2017-12-13T11:20:20.785Z,99.99
2017-12-13T11:21:30.764Z,99.99
2017-12-13T11:22:40.735Z,99.99
2017-12-13T11:23:50.448Z,99.99
2017-12-13T11:25:00.428Z,99.99
2017-12-13T11:26:10.655Z,99.99
2017-12-13T11:27:20.363Z,99.99
2017-12-13T11:28:30.344Z,99.99
2017-12-13T11:29:40.319Z,99.99
2017-12-13T11:30:50.300Z,99.99
2017-12-13T11:32:00.282Z,99.99
2017-12-13T11:33:10.258Z,99.99
2017-12-13T11:34:19.966Z,99.99
2017-12-13T11:35:29.676Z,99.99
2017-12-13T11:36:39.385Z,99.99
2017-12-13T11:37:51.098Z,99.99
2017-12-13T11:39:01.098Z,99.99
2017-12-13T11:40:11.072Z,99.99
2017-12-13T11:41:20.788Z,99.99
2017-12-13T11:42:30.769Z,99.99
2017-12-13T11:43:40.755Z,99.99
2017-12-13T11:44:50.474Z,99.99
2017-12-13T11:46:00.453Z,99.99
2017-12-13T11:47:10.982Z,99.99
2017-12-13T11:48:20.979Z,99.99
2017-12-13T11:49:30.955Z,99.99
2017-12-13T11:50:40.928Z,99.99
2017-12-13T11:51:50.899Z,99.99
2017-12-13T11:53:00.875Z,99.99
2017-12-13T11:54:10.850Z,99.99
2017-12-13T11:55:20.975Z,99.99
2017-12-13T11:56:30.952Z,99.99
2017-12-13T11:57:40.660Z,99.99
2017-12-13T11:58:50.640Z,99.99
2017-12-13T12:00:00.621Z,99.99
2017-12-13T12:01:10.334Z,99.99
2017-12-13T12:02:20.051Z,99.99
2017-12-13T12:03:30.059Z,99.99
2017-12-13T12:04:40.035Z,99.99
2017-12-13T12:05:50.006Z,99.99
2017-12-13T12:06:59.767Z,99.99
2017-12-13T12:08:09.742Z,99.99
2017-12-13T12:09:19.452Z,99.99
2017-12-13T12:10:29.422Z,99.99
2017-12-13T12:11:39.138Z,99.99
2017-12-13T12:12:49.113Z,99.99
2017-12-13T12:13:58.823Z,99.99
2017-12-13T12:15:08.798Z,99.99
2017-12-13T12:16:18.789Z,99.99
2017-12-13T12:17:28.230Z,99.99
2017-12-13T12:18:38.206Z,99.99
2017-12-13T12:19:47.923Z,99.99
2017-12-13T12:20:57.899Z,99.99
2017-12-13T12:22:07.627Z,99.99
2017-12-13T12:23:17.607Z,99.99
2017-12-13T12:24:27.591Z,99.99
2017-12-13T12:25:37.566Z,99.99
2017-12-13T12:26:47.540Z,99.99
2017-12-13T12:27:57.524Z,99.99
2017-12-13T12:29:07.500Z,99.99
2017-12-13T12:30:17.476Z,99.99
2017-12-13T12:31:27.188Z,99.99
2017-12-13T12:32:36.901Z,99.99
2017-12-13T12:33:46.615Z,99.99
2017-12-13T12:34:56.590Z,99.99
2017-12-13T12:36:06.564Z,99.99
2017-12-13T12:37:16.543Z,99.99
2017-12-13T12:38:26.579Z,99.99
2017-12-13T12:39:36.554Z,99.99
2017-12-13T12:40:46.528Z,99.99
2017-12-13T12:41:56.233Z,99.99
2017-12-13T12:43:06.217Z,99.99
2017-12-13T12:44:16.193Z,99.99
2017-12-13T12:45:26.170Z,99.99
2017-12-13T12:46:36.153Z,99.99
2017-12-13T12:47:48.146Z,99.99
2017-12-13T12:48:58.122Z,99.99
2017-12-13T12:50:08.102Z,99.99
2017-12-13T12:51:18.073Z,99.99
2017-12-13T12:52:28.051Z,99.99
2017-12-13T12:53:38.125Z,99.99
2017-12-13T12:54:47.566Z,99.99
2017-12-13T12:55:57.013Z,99.99
2017-12-13T12:57:06.773Z,99.99
2017-12-13T12:58:16.802Z,99.99
2017-12-13T12:59:26.779Z,99.99
2017-12-13T13:00:36.849Z,99.99
2017-12-13T13:01:46.825Z,99.99
2017-12-13T13:02:56.793Z,99.99
2017-12-13T13:04:07.052Z,99.99
2017-12-13T13:05:17.021Z,99.99
2017-12-13T13:06:27.060Z,99.99
2017-12-13T13:07:37.353Z,99.99
2017-12-13T13:08:47.818Z,99.99
2017-12-13T13:09:58.077Z,99.99
2017-12-13T13:11:08.048Z,99.99
2017-12-13T13:12:17.737Z,99.99
2017-12-13T13:13:27.990Z,99.99
2017-12-13T13:14:37.892Z,99.99
2017-12-13T13:15:48.151Z,99.99
2017-12-13T13:16:58.411Z,99.99
2017-12-13T13:18:08.398Z,99.99
2017-12-13T13:19:18.657Z,99.99
2017-12-13T13:20:28.927Z,99.99
2017-12-13T13:21:38.622Z,99.99
2017-12-13T13:22:48.890Z,99.99
2017-12-13T13:23:59.173Z,99.99
2017-12-13T13:25:09.937Z,99.99
2017-12-13T13:26:20.203Z,99.99
2017-12-13T13:27:30.189Z,99.99
2017-12-13T13:28:39.884Z,99.99
2017-12-13T13:29:50.157Z,99.99
2017-12-13T13:31:00.422Z,99.99
2017-12-13T13:32:11.388Z,99.99
2017-12-13T13:33:21.857Z,99.99
2017-12-13T13:34:32.120Z,99.99
2017-12-13T13:35:42.382Z,99.99
2017-12-13T13:36:52.363Z,99.99
2017-12-13T13:38:02.628Z,99.99
2017-12-13T13:39:12.899Z,99.99
2017-12-13T13:40:23.166Z,99.99
2017-12-13T13:41:33.429Z,99.99
2017-12-13T13:42:43.700Z,99.99
2017-12-13T13:43:53.973Z,99.99
2017-12-13T13:45:04.278Z,99.99
2017-12-13T13:46:14.032Z,99.99
2017-12-13T13:47:24.288Z,99.99
2017-12-13T13:48:34.564Z,99.99
2017-12-13T13:49:44.854Z,99.99
2017-12-13T13:50:55.104Z,99.99
2017-12-13T13:52:05.285Z,99.99
2017-12-13T13:53:15.263Z,99.99
2017-12-13T13:54:25.521Z,99.99
2017-12-13T13:55:35.769Z,99.99
2017-12-13T13:56:46.017Z,99.99
2017-12-13T13:57:56.270Z,99.99
2017-12-13T13:59:06.528Z,99.99
2017-12-13T14:00:16.771Z,99.99
2017-12-13T14:01:26.733Z,99.99
2017-12-13T14:02:36.693Z,99.99
2017-12-13T14:03:46.811Z,99.99
2017-12-13T14:04:56.783Z,99.99
2017-12-13T14:06:07.038Z,99.99
2017-12-13T14:07:17.285Z,99.99
2017-12-13T14:08:27.257Z,99.99
2017-12-13T14:09:37.507Z,99.99
2017-12-13T14:10:47.475Z,99.99
2017-12-13T14:11:57.720Z,99.99
2017-12-13T14:13:07.975Z,99.99
2017-12-13T14:14:18.230Z,99.99
2017-12-13T14:15:28.193Z,99.99
2017-12-13T14:16:38.439Z,99.99
2017-12-13T14:17:48.692Z,99.99
2017-12-13T14:18:58.652Z,99.99
2017-12-13T14:20:08.899Z,99.99
2017-12-13T14:21:19.149Z,99.99
2017-12-13T14:22:29.112Z,99.99
2017-12-13T14:23:39.356Z,99.99
2017-12-13T14:24:49.655Z,99.99
2017-12-13T14:25:59.900Z,99.99
2017-12-13T14:27:10.307Z,99.99
2017-12-13T14:28:20.279Z,99.99
2017-12-13T14:29:30.542Z,99.99
2017-12-13T14:30:40.802Z,99.99
2017-12-13T14:31:50.827Z,99.99
2017-12-13T14:33:01.076Z,99.99
2017-12-13T14:34:11.333Z,99.99
2017-12-13T14:35:21.303Z,99.99
2017-12-13T14:36:31.556Z,99.99
2017-12-13T14:37:41.524Z,99.99
2017-12-13T14:38:51.543Z,99.99
2017-12-13T14:40:01.503Z,99.99
2017-12-13T14:41:11.761Z,99.99
2017-12-13T14:42:22.024Z,99.99
2017-12-13T14:43:32.280Z,99.99
2017-12-13T14:44:42.248Z,99.99
2017-12-13T14:45:52.510Z,99.99
2017-12-13T14:47:02.895Z,99.99
2017-12-13T14:48:13.188Z,99.99
2017-12-13T14:49:22.875Z,99.99
2017-12-13T14:50:33.263Z,99.99
2017-12-13T14:51:43.518Z,99.99
2017-12-13T14:52:53.776Z,99.99
2017-12-13T14:54:04.029Z,99.99
2017-12-13T14:55:14.284Z,99.99
2017-12-13T14:56:24.540Z,99.99
2017-12-13T14:57:34.508Z,99.99
2017-12-13T14:58:44.476Z,99.99
2017-12-13T14:59:54.733Z,99.99
2017-12-13T15:01:04.419Z,99.99
2017-12-13T15:02:14.414Z,99.99
2017-12-13T15:03:24.675Z,99.99
2017-12-13T15:04:35.031Z,99.99